Time;durP1;ratioP1;P1;durP2;ratioP2;P2;SDS_P1;SDS_P2;PMS_P1;PMS_P2;Temp;Humidity;BMP_temperature;BMP_pressure;BME280_temperature;BME280_humidity;BME280_pressure;Samples;Min_cycle;Max_cycle;Signal;HPM_P1;HPM_P2
2021/06/10 00:00:48;;;;;;;11.77;7.95;;;17.30;99.90;;;;;;5072173;28;20123;-65
2021/06/10 00:03:15;;;;;;;13.45;7.88;;;17.20;99.90;;;;;;5073184;28;20411;-65
2021/06/10 00:05:41;;;;;;;10.27;7.93;;;17.10;99.90;;;;;;5072283;28;20428;-65
2021/06/10 00:08:07;;;;;;;11.05;7.80;;;17.10;99.90;;;;;;5071091;28;20036;-65
2021/06/10 00:10:34;;;;;;;11.75;7.47;;;17.10;99.90;;;;;;5073460;28;20021;-64
2021/06/10 00:13:00;;;;;;;10.15;7.82;;;17.00;99.90;;;;;;5071522;28;20497;-65
2021/06/10 00:15:31;;;;;;;11.50;8.10;;;17.00;99.90;;;;;;5072685;28;20039;-64
2021/06/10 00:17:58;;;;;;;13.98;8.10;;;16.90;99.90;;;;;;5071351;28;20039;-63
2021/06/10 00:20:26;;;;;;;15.73;8.52;;;16.80;99.90;;;;;;5052978;28;20098;-65
2021/06/10 00:22:55;;;;;;;11.77;8.32;;;16.80;99.90;;;;;;5071862;28;20135;-64
2021/06/10 00:25:21;;;;;;;9.50;8.13;;;16.70;99.90;;;;;;5067566;28;20115;-64
2021/06/10 00:27:47;;;;;;;13.90;8.80;;;16.70;99.90;;;;;;5071383;28;20031;-63
2021/06/10 00:30:17;;;;;;;12.57;9.63;;;16.60;99.90;;;;;;5071734;28;20115;-64
2021/06/10 00:32:46;;;;;;;18.83;8.80;;;16.60;99.90;;;;;;5072140;28;20128;-65
2021/06/10 00:35:12;;;;;;;11.02;8.90;;;16.60;99.90;;;;;;5070762;28;20111;-65
2021/06/10 00:37:38;;;;;;;10.52;8.45;;;16.50;99.90;;;;;;5071335;28;20041;-65
2021/06/10 00:40:07;;;;;;;14.27;9.77;;;16.50;99.90;;;;;;5063406;28;20111;-64
2021/06/10 00:42:33;;;;;;;14.57;10.18;;;16.50;99.90;;;;;;5071334;28;20039;-64
2021/06/10 00:44:59;;;;;;;10.10;8.95;;;16.40;99.90;;;;;;5071839;28;20024;-65
2021/06/10 00:47:25;;;;;;;13.95;8.93;;;16.40;99.90;;;;;;5070782;28;20368;-65
2021/06/10 00:49:51;;;;;;;9.90;8.90;;;16.30;99.90;;;;;;5070299;28;20037;-64
2021/06/10 00:52:16;;;;;;;11.52;9.60;;;16.30;99.90;;;;;;5071248;28;20369;-64
2021/06/10 00:54:42;;;;;;;12.20;8.48;;;16.30;99.90;;;;;;5069736;28;20047;-64
2021/06/10 00:57:08;;;;;;;15.27;8.55;;;16.20;99.90;;;;;;5071038;28;20386;-65
2021/06/10 00:59:34;;;;;;;11.90;8.55;;;16.20;99.90;;;;;;5069354;28;20028;-65
2021/06/10 01:02:00;;;;;;;12.32;8.88;;;16.20;99.90;;;;;;5071504;28;20526;-65
2021/06/10 01:04:27;;;;;;;10.50;8.48;;;16.10;99.90;;;;;;5071296;28;20403;-65
2021/06/10 01:06:58;;;;;;;11.40;9.02;;;16.10;99.90;;;;;;5071052;28;20456;-63
2021/06/10 01:09:35;;;;;;;14.80;9.13;;;16.10;99.90;;;;;;5069190;28;20036;-65
2021/06/10 01:12:34;;;;;;;10.65;9.27;;;16.00;99.90;;;;;;5069221;28;20029;-64
2021/06/10 01:15:06;;;;;;;14.82;8.85;;;16.00;99.90;;;;;;5071079;28;20032;-63
2021/06/10 01:17:35;;;;;;;16.30;9.57;;;16.00;99.90;;;;;;5070011;28;20024;-64
2021/06/10 01:20:03;;;;;;;10.93;8.70;;;16.00;99.90;;;;;;5072836;28;20032;-63
2021/06/10 01:22:47;;;;;;;16.27;9.43;;;16.00;99.90;;;;;;5088382;22;20051;-61
2021/06/10 01:25:34;;;;;;;19.73;8.60;;;16.00;99.90;;;;;;5089009;28;20020;-62
2021/06/10 01:28:14;;;;;;;9.73;8.27;;;15.90;99.90;;;;;;5067299;28;20043;-61
2021/06/10 01:30:54;;;;;;;14.60;9.65;;;15.90;99.90;;;;;;5086173;28;20036;-61
2021/06/10 01:33:30;;;;;;;15.65;10.07;;;15.90;99.90;;;;;;5075089;28;20822;-61
2021/06/10 01:36:07;;;;;;;18.85;9.90;;;15.90;99.90;;;;;;5069761;28;20032;-61
2021/06/10 01:38:33;;;;;;;14.43;9.60;;;15.90;99.90;;;;;;5068000;28;20234;-61
2021/06/10 01:41:00;;;;;;;15.77;9.32;;;15.90;99.90;;;;;;5070180;28;20035;-60
2021/06/10 01:43:29;;;;;;;15.73;9.32;;;15.90;99.90;;;;;;5069915;28;20035;-61
2021/06/10 01:45:56;;;;;;;13.48;8.30;;;15.90;99.90;;;;;;5068688;28;20040;-62
2021/06/10 01:48:23;;;;;;;16.58;8.60;;;16.00;99.90;;;;;;5051948;28;20031;-62
2021/06/10 01:50:53;;;;;;;14.43;8.90;;;15.90;99.90;;;;;;5069557;28;20025;-61
2021/06/10 01:53:20;;;;;;;17.35;9.10;;;15.90;99.90;;;;;;5073473;28;20021;-61
2021/06/10 01:55:47;;;;;;;16.00;8.35;;;16.00;99.90;;;;;;5070206;28;20557;-62
2021/06/10 01:58:13;;;;;;;19.05;8.63;;;15.90;99.90;;;;;;5065431;28;20106;-61
2021/06/10 02:00:40;;;;;;;16.13;8.63;;;15.90;99.90;;;;;;5069986;28;20058;-61
2021/06/10 02:03:07;;;;;;;18.58;8.55;;;15.90;99.90;;;;;;5068828;28;20405;-62
2021/06/10 02:05:36;;;;;;;15.05;9.30;;;15.90;99.90;;;;;;5069393;28;20078;-61
2021/06/10 02:08:03;;;;;;;23.40;10.02;;;15.90;99.90;;;;;;5069062;28;20032;-62
2021/06/10 02:10:29;;;;;;;23.02;10.38;;;15.80;99.90;;;;;;5069972;28;20095;-62
2021/06/10 02:12:55;;;;;;;16.38;8.70;;;15.70;99.90;;;;;;5069951;28;20040;-60
2021/06/10 02:15:22;;;;;;;22.45;9.20;;;15.70;99.90;;;;;;5069683;28;20035;-61
2021/06/10 02:17:48;;;;;;;18.73;9.50;;;15.60;99.90;;;;;;5069058;28;20025;-60
2021/06/10 02:20:17;;;;;;;20.88;11.10;;;15.60;99.90;;;;;;5073247;28;20083;-62
2021/06/10 02:22:43;;;;;;;20.05;10.40;;;15.60;99.90;;;;;;5068710;28;20043;-62
2021/06/10 02:25:09;;;;;;;27.60;10.27;;;15.50;99.90;;;;;;5073458;28;20306;-62
2021/06/10 02:27:35;;;;;;;23.10;9.75;;;15.40;99.90;;;;;;5069499;28;20048;-62
2021/06/10 02:30:00;;;;;;;21.58;10.07;;;15.50;99.90;;;;;;5070488;28;20029;-62
2021/06/10 02:32:26;;;;;;;14.52;8.98;;;15.50;99.90;;;;;;5071290;28;20024;-62
2021/06/10 02:34:52;;;;;;;17.90;8.88;;;15.40;99.90;;;;;;5070748;28;20162;-61
2021/06/10 02:37:21;;;;;;;22.73;9.38;;;15.50;99.90;;;;;;5069703;28;20035;-62
2021/06/10 02:39:48;;;;;;;15.98;9.48;;;15.40;99.90;;;;;;5072390;28;20021;-61
2021/06/10 02:42:15;;;;;;;18.20;9.32;;;15.40;99.90;;;;;;5069619;28;20102;-62
2021/06/10 02:44:43;;;;;;;28.40;10.57;;;15.40;99.90;;;;;;5067069;28;20453;-61
2021/06/10 02:47:10;;;;;;;20.08;9.25;;;15.30;99.90;;;;;;5069981;28;20021;-62
2021/06/10 02:49:36;;;;;;;23.35;10.20;;;15.20;99.90;;;;;;5066965;28;20476;-61
2021/06/10 02:52:06;;;;;;;22.13;10.43;;;15.20;99.90;;;;;;5070418;28;20028;-61
2021/06/10 02:54:34;;;;;;;22.13;9.27;;;15.20;99.90;;;;;;5076338;28;20083;-59
2021/06/10 02:57:00;;;;;;;18.20;11.05;;;15.10;99.90;;;;;;5070866;28;20215;-61
2021/06/10 02:59:28;;;;;;;23.95;11.23;;;15.00;99.90;;;;;;5070701;28;20028;-61
2021/06/10 03:01:56;;;;;;;17.48;9.88;;;15.00;99.90;;;;;;5070003;28;20029;-62
2021/06/10 03:04:22;;;;;;;23.52;10.45;;;15.00;99.90;;;;;;5069456;28;20064;-61
2021/06/10 03:06:49;;;;;;;21.85;10.70;;;15.00;99.90;;;;;;5070512;28;20032;-62
2021/06/10 03:09:14;;;;;;;23.33;9.93;;;15.00;99.90;;;;;;5068091;28;20025;-61
2021/06/10 03:11:43;;;;;;;14.90;9.80;;;14.90;99.90;;;;;;5068869;28;20027;-61
2021/06/10 03:14:10;;;;;;;17.55;10.55;;;14.90;99.90;;;;;;5070232;28;20027;-60
2021/06/10 03:16:38;;;;;;;20.88;9.68;;;14.90;99.90;;;;;;5068203;28;20033;-62
2021/06/10 03:19:04;;;;;;;16.30;10.35;;;14.80;99.90;;;;;;5066178;28;20411;-62
2021/06/10 03:21:30;;;;;;;21.38;11.20;;;14.80;99.90;;;;;;5068219;28;20036;-61
2021/06/10 03:23:56;;;;;;;29.30;12.48;;;14.80;99.90;;;;;;5071251;28;20146;-61
2021/06/10 03:26:23;;;;;;;21.25;11.38;;;14.80;99.90;;;;;;5070280;28;20028;-58
2021/06/10 03:28:49;;;;;;;20.65;11.70;;;14.80;99.90;;;;;;5069617;28;20598;-61
2021/06/10 03:31:15;;;;;;;18.65;11.45;;;14.80;99.90;;;;;;5068696;28;20115;-62
2021/06/10 03:33:41;;;;;;;18.55;11.75;;;14.70;99.90;;;;;;5052041;28;20099;-61
2021/06/10 03:36:09;;;;;;;25.20;11.93;;;14.70;99.90;;;;;;5070076;28;20028;-61
2021/06/10 03:38:35;;;;;;;21.10;11.82;;;14.70;99.90;;;;;;5069258;28;20064;-60
2021/06/10 03:41:02;;;;;;;18.77;11.52;;;14.70;99.90;;;;;;5068937;28;20744;-61
2021/06/10 03:43:28;;;;;;;23.83;11.93;;;14.70;99.90;;;;;;5070891;28;20388;-59
2021/06/10 03:45:55;;;;;;;21.55;13.15;;;14.80;99.90;;;;;;5069777;28;20059;-61
2021/06/10 03:48:20;;;;;;;23.40;12.48;;;14.80;99.90;;;;;;5070379;28;20033;-63
2021/06/10 03:50:46;;;;;;;19.15;11.43;;;14.90;99.90;;;;;;5070617;28;20488;-63
2021/06/10 03:53:12;;;;;;;19.02;12.02;;;14.90;99.90;;;;;;5063174;28;20021;-61
2021/06/10 03:55:39;;;;;;;24.67;12.40;;;15.00;99.90;;;;;;5070052;28;20029;-61
2021/06/10 03:58:05;;;;;;;22.67;11.38;;;15.10;99.90;;;;;;5069388;28;20047;-62
2021/06/10 04:00:30;;;;;;;22.67;11.27;;;15.20;99.90;;;;;;5069953;28;21708;-62
2021/06/10 04:02:58;;;;;;;21.05;11.55;;;15.20;99.90;;;;;;5069902;28;20399;-61
2021/06/10 04:05:26;;;;;;;19.00;11.73;;;15.20;99.90;;;;;;5070484;28;20515;-59
2021/06/10 04:07:55;;;;;;;18.30;11.35;;;15.20;99.90;;;;;;5067734;28;20531;-62
2021/06/10 04:10:21;;;;;;;15.02;10.80;;;15.20;99.90;;;;;;5068947;28;20031;-62
2021/06/10 04:12:46;;;;;;;25.05;11.52;;;15.20;99.90;;;;;;5073364;28;20052;-61
2021/06/10 04:15:13;;;;;;;16.63;10.70;;;15.10;99.90;;;;;;5073348;28;20059;-63
2021/06/10 04:17:38;;;;;;;19.27;11.02;;;15.10;99.90;;;;;;5073111;28;20108;-59
2021/06/10 04:20:05;;;;;;;18.30;11.65;;;15.10;99.90;;;;;;5073665;28;20684;-61
2021/06/10 04:22:31;;;;;;;19.65;11.98;;;15.10;99.90;;;;;;5071857;28;20060;-61
2021/06/10 04:24:56;;;;;;;19.42;10.82;;;15.10;99.90;;;;;;5073557;28;20056;-62
2021/06/10 04:27:23;;;;;;;19.17;11.75;;;15.10;99.90;;;;;;5073253;28;20024;-62
2021/06/10 04:29:48;;;;;;;19.55;10.85;;;15.10;99.90;;;;;;5063857;28;20091;-62
2021/06/10 04:32:14;;;;;;;16.88;10.85;;;15.10;99.90;;;;;;5073480;28;20025;-61
2021/06/10 04:34:39;;;;;;;21.13;11.07;;;15.20;99.90;;;;;;5072873;28;20048;-61
2021/06/10 04:37:05;;;;;;;18.65;10.73;;;15.20;99.90;;;;;;5072460;28;20068;-60
2021/06/10 04:39:31;;;;;;;17.50;11.75;;;15.20;99.90;;;;;;5069320;28;20115;-59
2021/06/10 04:41:56;;;;;;;19.20;10.77;;;15.20;99.90;;;;;;5071684;28;20036;-61
2021/06/10 04:44:22;;;;;;;17.38;10.75;;;15.20;99.90;;;;;;5072172;28;20024;-61
2021/06/10 04:46:47;;;;;;;17.42;10.18;;;15.20;99.90;;;;;;5072497;28;20300;-61
2021/06/10 04:49:13;;;;;;;17.35;10.60;;;15.30;99.90;;;;;;5072643;28;20060;-62
2021/06/10 04:51:39;;;;;;;25.92;11.43;;;15.30;99.90;;;;;;5068501;28;20485;-62
2021/06/10 04:54:05;;;;;;;19.98;10.93;;;15.30;99.90;;;;;;5070787;28;20024;-60
2021/06/10 04:56:31;;;;;;;18.67;11.38;;;15.40;99.90;;;;;;5071804;28;20032;-61
2021/06/10 04:58:56;;;;;;;18.20;11.75;;;15.40;99.90;;;;;;5052525;28;20025;-61
2021/06/10 05:01:23;;;;;;;17.25;11.63;;;15.50;99.90;;;;;;5050302;28;20036;-61
2021/06/10 05:03:49;;;;;;;18.77;11.77;;;15.50;99.90;;;;;;5070047;28;20037;-63
2021/06/10 05:06:14;;;;;;;18.20;11.43;;;15.60;99.90;;;;;;5071539;28;20032;-62
2021/06/10 05:08:40;;;;;;;16.58;11.07;;;15.70;99.90;;;;;;5067097;28;20037;-62
2021/06/10 05:11:05;;;;;;;17.15;10.80;;;15.80;99.90;;;;;;5072341;28;20021;-62
2021/06/10 05:13:31;;;;;;;23.13;10.73;;;15.90;99.90;;;;;;5070014;28;20024;-62
2021/06/10 05:15:57;;;;;;;19.08;10.32;;;15.90;99.90;;;;;;5068426;28;20099;-62
2021/06/10 05:18:22;;;;;;;23.77;11.90;;;16.00;99.90;;;;;;5071917;28;20024;-62
2021/06/10 05:20:48;;;;;;;20.85;11.98;;;16.10;99.90;;;;;;5071687;28;20079;-63
2021/06/10 05:23:14;;;;;;;22.52;11.85;;;16.20;99.90;;;;;;5069216;28;20029;-62
2021/06/10 05:25:40;;;;;;;22.75;12.57;;;16.20;99.90;;;;;;5074121;28;20033;-61
2021/06/10 05:28:05;;;;;;;19.80;12.40;;;16.30;99.90;;;;;;5067773;28;20059;-61
2021/06/10 05:30:31;;;;;;;18.92;11.60;;;16.40;99.90;;;;;;5068814;28;20020;-62
2021/06/10 05:32:57;;;;;;;20.55;11.75;;;16.50;99.90;;;;;;5071118;28;20395;-61
2021/06/10 05:35:22;;;;;;;20.05;12.95;;;16.60;99.90;;;;;;5071342;28;20044;-62
2021/06/10 05:37:48;;;;;;;23.50;12.75;;;16.70;99.90;;;;;;5070492;28;20056;-61
2021/06/10 05:40:14;;;;;;;21.63;14.48;;;16.80;99.90;;;;;;5071911;28;20056;-61
2021/06/10 05:42:40;;;;;;;23.15;13.75;;;16.80;99.90;;;;;;5070937;28;20082;-61
2021/06/10 05:45:06;;;;;;;20.45;13.15;;;16.90;99.90;;;;;;5069723;28;20082;-62
2021/06/10 05:47:32;;;;;;;16.88;11.82;;;16.90;99.90;;;;;;5067327;28;20073;-61
2021/06/10 05:49:57;;;;;;;18.55;12.85;;;17.00;99.90;;;;;;5070784;28;20099;-61
2021/06/10 05:52:24;;;;;;;18.65;11.80;;;17.00;99.90;;;;;;5069608;28;20031;-62
2021/06/10 05:54:50;;;;;;;16.48;12.00;;;17.10;99.90;;;;;;5068193;28;20031;-61
2021/06/10 05:57:16;;;;;;;17.23;12.32;;;17.10;99.90;;;;;;5065197;28;20023;-62
2021/06/10 05:59:43;;;;;;;17.52;11.98;;;17.20;99.90;;;;;;5064190;28;20419;-64
2021/06/10 06:02:09;;;;;;;17.02;11.80;;;17.30;99.90;;;;;;5066572;28;20071;-62
2021/06/10 06:04:34;;;;;;;22.75;13.10;;;17.30;99.90;;;;;;5069427;28;20456;-61
2021/06/10 06:07:00;;;;;;;22.73;13.40;;;17.40;99.90;;;;;;5064606;28;20036;-61
2021/06/10 06:09:25;;;;;;;17.73;12.27;;;17.50;99.90;;;;;;5070828;28;20020;-62
2021/06/10 06:11:52;;;;;;;18.65;12.27;;;17.50;99.90;;;;;;5070232;28;20052;-61
2021/06/10 06:14:23;;;;;;;22.23;12.75;;;17.60;99.90;;;;;;5068751;28;20032;-61
2021/06/10 06:16:48;;;;;;;18.63;12.40;;;17.70;99.90;;;;;;5069460;28;20039;-62
2021/06/10 06:19:14;;;;;;;20.20;13.20;;;17.80;99.90;;;;;;5065705;28;20037;-62
2021/06/10 06:21:43;;;;;;;28.52;11.45;;;17.90;99.90;;;;;;5049672;28;20052;-63
2021/06/10 06:24:09;;;;;;;18.73;11.55;;;18.00;99.90;;;;;;5068973;28;20036;-62
2021/06/10 06:26:35;;;;;;;19.98;11.85;;;18.00;99.90;;;;;;5069966;28;20082;-62
2021/06/10 06:29:02;;;;;;;17.02;11.73;;;18.20;99.90;;;;;;5065423;28;20105;-62
2021/06/10 06:31:28;;;;;;;22.50;13.90;;;18.20;99.90;;;;;;5063808;28;20012;-62
2021/06/10 06:33:54;;;;;;;21.90;11.52;;;18.30;99.90;;;;;;5067058;28;20028;-62
2021/06/10 06:36:20;;;;;;;18.77;11.85;;;18.40;99.90;;;;;;5069515;28;20043;-62
2021/06/10 06:38:47;;;;;;;19.10;11.65;;;18.40;99.90;;;;;;5064479;28;20038;-62
2021/06/10 06:41:13;;;;;;;19.15;11.48;;;18.50;99.90;;;;;;5058515;28;20027;-62
2021/06/10 06:43:39;;;;;;;18.05;11.43;;;18.60;99.90;;;;;;5070267;28;20024;-63
2021/06/10 06:46:06;;;;;;;17.52;9.80;;;18.70;99.90;;;;;;5069179;28;20036;-63
2021/06/10 06:48:33;;;;;;;22.98;10.90;;;18.70;99.90;;;;;;5062731;28;20074;-63
2021/06/10 06:51:00;;;;;;;20.50;10.68;;;18.70;99.90;;;;;;5065429;28;20040;-62
2021/06/10 06:53:29;;;;;;;19.95;10.68;;;18.90;99.90;;;;;;5061248;28;20024;-62
2021/06/10 06:55:55;;;;;;;19.65;10.45;;;19.00;99.90;;;;;;5069079;28;20044;-62
2021/06/10 06:58:20;;;;;;;22.85;10.43;;;19.10;99.90;;;;;;5071064;28;20020;-62
2021/06/10 07:00:46;;;;;;;22.27;8.80;;;19.10;99.90;;;;;;5067652;28;20031;-62
2021/06/10 07:03:11;;;;;;;16.48;9.65;;;19.20;99.90;;;;;;5067317;28;20089;-62
2021/06/10 07:05:37;;;;;;;16.25;10.20;;;19.30;99.90;;;;;;5069505;28;20122;-64
2021/06/10 07:08:02;;;;;;;15.98;9.70;;;19.30;99.90;;;;;;5069736;28;20495;-62
2021/06/10 07:10:28;;;;;;;22.67;9.65;;;19.40;99.90;;;;;;5070773;28;20056;-62
2021/06/10 07:12:53;;;;;;;18.08;10.15;;;19.50;99.90;;;;;;5068451;28;20025;-62
2021/06/10 07:15:19;;;;;;;27.40;11.15;;;19.60;99.90;;;;;;5058434;28;20574;-62
2021/06/10 07:17:45;;;;;;;19.85;10.10;;;19.70;99.90;;;;;;5073310;28;20423;-62
2021/06/10 07:20:11;;;;;;;21.25;11.75;;;19.80;99.90;;;;;;5071574;28;20040;-62
2021/06/10 07:22:38;;;;;;;22.08;10.93;;;19.90;99.90;;;;;;5070529;28;20040;-60
2021/06/10 07:25:05;;;;;;;18.17;11.02;;;19.90;99.90;;;;;;5066267;28;20037;-62
2021/06/10 07:27:31;;;;;;;20.00;11.02;;;20.10;99.90;;;;;;5070515;28;20503;-62
2021/06/10 07:29:58;;;;;;;23.65;12.68;;;20.20;99.90;;;;;;5067409;28;20044;-62
2021/06/10 07:32:24;;;;;;;22.73;11.15;;;20.30;99.90;;;;;;5068559;28;20060;-61
2021/06/10 07:34:50;;;;;;;25.40;11.27;;;20.30;99.90;;;;;;5070398;28;20541;-61
2021/06/10 07:37:15;;;;;;;17.45;11.05;;;20.50;99.90;;;;;;5069168;28;20033;-62
2021/06/10 07:39:41;;;;;;;28.70;12.63;;;20.50;99.90;;;;;;5070692;28;20104;-61
2021/06/10 07:42:08;;;;;;;24.65;13.25;;;20.60;99.90;;;;;;5070191;28;20033;-62
2021/06/10 07:44:33;;;;;;;24.70;12.77;;;20.70;99.90;;;;;;5062884;28;20054;-61
2021/06/10 07:46:59;;;;;;;20.33;14.43;;;20.70;99.90;;;;;;5070167;28;20024;-62
2021/06/10 07:49:25;;;;;;;29.42;13.07;;;20.80;99.90;;;;;;5068407;28;20400;-62
2021/06/10 07:51:50;;;;;;;43.17;15.55;;;20.90;99.90;;;;;;5072648;28;20017;-61
2021/06/10 07:54:16;;;;;;;22.20;13.90;;;20.90;99.90;;;;;;5072167;28;20065;-62
2021/06/10 07:56:42;;;;;;;16.92;10.40;;;21.00;99.90;;;;;;5072545;28;20036;-62
2021/06/10 07:59:09;;;;;;;16.17;8.75;;;21.00;99.90;;;;;;5070044;28;20512;-61
2021/06/10 08:01:35;;;;;;;14.68;7.85;;;21.10;99.90;;;;;;5066901;28;20115;-60
2021/06/10 08:04:01;;;;;;;16.75;9.07;;;21.20;99.90;;;;;;5075185;28;20178;-62
2021/06/10 08:06:26;;;;;;;28.52;9.75;;;21.20;99.90;;;;;;5071028;28;20027;-60
2021/06/10 08:08:52;;;;;;;18.90;9.32;;;21.30;99.90;;;;;;5071285;28;20032;-62
2021/06/10 08:11:17;;;;;;;14.52;8.20;;;21.40;99.90;;;;;;5074013;28;20503;-61
2021/06/10 08:13:43;;;;;;;15.18;9.00;;;21.50;99.90;;;;;;5074170;28;20029;-61
2021/06/10 08:16:09;;;;;;;14.75;7.57;;;21.50;99.90;;;;;;5073747;28;20403;-62
2021/06/10 08:18:35;;;;;;;17.23;5.78;;;21.60;99.90;;;;;;5074940;28;20422;-62
2021/06/10 08:21:02;;;;;;;15.25;6.03;;;21.70;99.90;;;;;;5072123;28;20103;-61
2021/06/10 08:23:29;;;;;;;13.73;6.53;;;21.80;99.90;;;;;;5066810;28;20055;-62
2021/06/10 08:25:57;;;;;;;16.50;6.93;;;21.90;99.90;;;;;;5073878;28;20024;-61
2021/06/10 08:28:24;;;;;;;15.63;6.05;;;22.00;99.90;;;;;;5069074;28;20525;-62
2021/06/10 08:30:50;;;;;;;11.95;5.88;;;22.10;99.90;;;;;;5066307;28;20423;-61
2021/06/10 08:33:16;;;;;;;13.45;6.22;;;22.20;99.90;;;;;;5070013;28;20062;-62
2021/06/10 08:35:42;;;;;;;10.88;5.72;;;22.20;99.90;;;;;;5073482;28;20394;-62
2021/06/10 08:38:09;;;;;;;14.18;5.78;;;22.20;99.90;;;;;;5068274;28;20100;-62
2021/06/10 08:40:37;;;;;;;14.02;6.22;;;22.30;99.90;;;;;;5073514;28;20047;-62
2021/06/10 08:43:08;;;;;;;14.65;7.63;;;22.40;99.90;;;;;;5073489;28;20107;-62
2021/06/10 08:45:34;;;;;;;23.35;4.90;;;22.40;99.90;;;;;;5070680;28;20028;-62
2021/06/10 08:48:00;;;;;;;10.82;4.82;;;22.50;99.90;;;;;;5070863;28;20052;-62
2021/06/10 08:50:28;;;;;;;11.25;6.13;;;22.60;99.90;;;;;;5071316;28;20515;-62
2021/06/10 08:52:58;;;;;;;14.82;5.32;;;22.70;99.90;;;;;;5062316;28;20041;-61
2021/06/10 08:55:25;;;;;;;13.63;5.75;;;22.80;99.90;;;;;;5068729;28;20044;-62
2021/06/10 08:57:52;;;;;;;7.32;4.43;;;22.90;99.90;;;;;;5095979;22;20390;-65
2021/06/10 09:00:20;;;;;;;12.85;5.82;;;23.00;99.90;;;;;;5059172;28;20017;-66
2021/06/10 09:02:58;;;;;;;12.35;4.93;;;23.20;99.90;;;;;;5068907;28;20520;-65
2021/06/10 09:05:24;;;;;;;9.90;4.70;;;23.30;99.90;;;;;;5055484;28;20029;-66
2021/06/10 09:07:56;;;;;;;8.68;4.47;;;23.40;99.90;;;;;;5068241;28;20059;-66
2021/06/10 09:10:27;;;;;;;14.00;5.35;;;23.50;99.90;;;;;;5057927;28;20025;-66
2021/06/10 09:12:57;;;;;;;12.00;5.07;;;23.50;99.90;;;;;;5057226;28;20074;-66
2021/06/10 09:15:28;;;;;;;7.72;4.70;;;23.50;99.90;;;;;;5061105;28;20142;-65
2021/06/10 09:18:00;;;;;;;7.68;3.88;;;23.60;99.90;;;;;;5061184;28;20021;-66
2021/06/10 09:20:29;;;;;;;11.52;4.50;;;23.70;99.90;;;;;;5056276;28;20503;-63
2021/06/10 09:23:16;;;;;;;11.57;6.63;;;23.90;99.90;;;;;;5068174;28;20117;-64
2021/06/10 09:25:43;;;;;;;9.90;5.00;;;24.10;99.90;;;;;;5066620;28;20119;-66
2021/06/10 09:28:09;;;;;;;9.68;4.72;;;24.20;99.90;;;;;;5063883;28;20020;-65
2021/06/10 09:30:40;;;;;;;11.68;6.53;;;24.30;99.90;;;;;;5074297;28;20027;-65
2021/06/10 09:33:12;;;;;;;14.25;7.10;;;24.40;99.90;;;;;;5061402;28;20166;-62
2021/06/10 09:35:41;;;;;;;14.15;6.80;;;24.30;99.90;;;;;;5057793;28;20052;-66
2021/06/10 09:38:09;;;;;;;12.27;6.40;;;24.40;99.90;;;;;;5057793;28;20120;-66
2021/06/10 09:40:36;;;;;;;12.75;5.68;;;24.40;99.90;;;;;;5057589;28;20089;-65
2021/06/10 09:43:02;;;;;;;15.80;6.13;;;24.50;99.90;;;;;;5052559;28;20526;-64
2021/06/10 09:45:29;;;;;;;15.35;7.25;;;24.60;99.90;;;;;;5063603;28;20047;-64
2021/06/10 09:48:00;;;;;;;8.48;5.90;;;24.80;99.90;;;;;;5054380;28;20039;-65
2021/06/10 09:50:42;;;;;;;17.70;7.80;;;25.00;99.90;;;;;;5052869;28;20055;-62
2021/06/10 09:53:18;;;;;;;14.15;6.50;;;25.10;99.90;;;;;;5048085;28;20017;-64
2021/06/10 09:55:53;;;;;;;12.27;5.45;;;25.20;99.90;;;;;;5051148;28;20029;-62
2021/06/10 09:58:21;;;;;;;9.52;4.63;;;25.30;99.90;;;;;;5048442;28;20373;-65
2021/06/10 10:00:48;;;;;;;13.00;5.20;;;25.40;99.90;;;;;;5060916;28;20082;-64
2021/06/10 10:03:23;;;;;;;11.05;4.43;;;25.40;99.90;;;;;;5060732;28;20028;-61
2021/06/10 10:05:50;;;;;;;12.35;4.97;;;25.30;99.90;;;;;;5055384;28;20040;-62
2021/06/10 10:08:15;;;;;;;14.75;4.97;;;24.90;99.90;;;;;;5051232;28;20025;-63
2021/06/10 10:10:42;;;;;;;7.72;4.80;;;24.50;99.90;;;;;;5052394;28;20036;-64
2021/06/10 10:13:10;;;;;;;11.93;4.97;;;24.40;99.90;;;;;;5057651;28;20048;-64
2021/06/10 10:15:37;;;;;;;6.18;3.97;;;24.40;99.90;;;;;;5050143;28;20032;-63
2021/06/10 10:18:02;;;;;;;9.38;5.40;;;24.50;99.90;;;;;;5053765;28;20039;-66
2021/06/10 10:20:28;;;;;;;15.98;6.13;;;24.80;99.90;;;;;;5052883;28;20037;-64
2021/06/10 10:22:54;;;;;;;8.80;3.67;;;25.10;99.60;;;;;;5061857;28;20040;-64
2021/06/10 10:25:19;;;;;;;9.50;3.97;;;25.40;99.90;;;;;;5032744;28;20566;-65
2021/06/10 10:27:45;;;;;;;5.32;3.42;;;25.60;99.10;;;;;;5058103;28;20048;-65
2021/06/10 10:30:11;;;;;;;12.43;4.25;;;25.80;98.90;;;;;;5059315;28;20427;-63
2021/06/10 10:32:41;;;;;;;8.02;3.97;;;25.80;98.20;;;;;;5049936;28;20090;-61
2021/06/10 10:35:22;;;;;;;8.70;4.00;;;25.60;98.50;;;;;;5050732;28;20482;-62
2021/06/10 10:37:48;;;;;;;10.55;4.65;;;25.70;98.00;;;;;;5047231;28;20029;-64
2021/06/10 10:40:24;;;;;;;14.85;4.50;;;25.60;98.20;;;;;;5060386;28;20032;-64
2021/06/10 10:42:54;;;;;;;8.82;3.83;;;25.70;98.60;;;;;;5056786;28;20749;-65
2021/06/10 10:45:23;;;;;;;7.63;4.07;;;26.00;98.70;;;;;;5052522;28;20730;-62
2021/06/10 10:48:01;;;;;;;11.02;4.28;;;26.30;98.20;;;;;;5053948;28;20480;-65
2021/06/10 10:50:38;;;;;;;4.95;3.22;;;26.70;99.90;;;;;;5056210;28;20376;-65
2021/06/10 10:53:29;;;;;;;7.38;3.47;;;27.10;99.90;;;;;;5063011;28;20013;-65
2021/06/10 10:56:11;;;;;;;6.07;4.18;;;26.80;98.40;;;;;;5051921;28;20035;-65
2021/06/10 10:58:38;;;;;;;6.53;3.75;;;27.20;95.90;;;;;;5055109;28;20449;-65
2021/06/10 11:01:05;;;;;;;5.53;3.80;;;27.20;99.90;;;;;;5058083;28;20104;-64
2021/06/10 11:03:44;;;;;;;7.00;2.90;;;27.40;96.70;;;;;;5061503;28;20013;-65
2021/06/10 11:06:22;;;;;;;5.22;3.08;;;27.50;95.90;;;;;;5061971;28;20135;-64
2021/06/10 11:09:20;;;;;;;5.28;3.00;;;27.50;95.60;;;;;;5058166;28;20056;-64
2021/06/10 11:12:00;;;;;;;4.60;2.72;;;27.50;95.20;;;;;;5061772;28;20028;-64
2021/06/10 11:14:50;;;;;;;5.47;2.90;;;27.40;94.60;;;;;;5063909;28;20020;-63
2021/06/10 11:17:19;;;;;;;4.97;2.50;;;27.50;93.90;;;;;;5058574;28;20032;-64
2021/06/10 11:19:49;;;;;;;4.18;3.00;;;27.50;94.60;;;;;;5057948;28;20086;-63
2021/06/10 11:22:27;;;;;;;2.80;2.20;;;27.30;93.40;;;;;;5060847;28;20044;-62
2021/06/10 11:24:53;;;;;;;5.53;2.35;;;27.20;94.10;;;;;;5063898;28;20100;-64
2021/06/10 11:28:05;;;;;;;10.13;2.72;;;26.90;94.50;;;;;;5068687;28;20035;-63
2021/06/10 11:30:31;;;;;;;5.82;2.60;;;26.70;95.00;;;;;;4963471;28;20662;-64
2021/06/10 11:32:59;;;;;;;4.63;3.13;;;27.00;94.50;;;;;;5055488;28;20060;-64
2021/06/10 11:35:27;;;;;;;4.20;2.83;;;27.00;92.70;;;;;;5065776;28;20056;-65
2021/06/10 11:37:55;;;;;;;5.57;2.42;;;27.50;95.10;;;;;;5059900;28;20553;-65
2021/06/10 11:40:21;;;;;;;4.72;2.78;;;27.80;93.50;;;;;;5065663;28;20032;-65
2021/06/10 11:42:47;;;;;;;5.95;2.97;;;27.70;91.70;;;;;;5048223;28;20037;-65
2021/06/10 11:45:12;;;;;;;3.25;2.28;;;27.70;91.80;;;;;;5068631;28;20029;-66
2021/06/10 11:47:42;;;;;;;12.27;2.70;;;28.00;92.20;;;;;;5061517;28;20028;-66
2021/06/10 11:50:26;;;;;;;6.90;2.95;;;28.20;92.00;;;;;;5062707;28;20047;-65
2021/06/10 11:52:54;;;;;;;9.55;2.83;;;28.00;90.60;;;;;;5045527;28;20037;-64
2021/06/10 11:55:21;;;;;;;6.43;2.53;;;28.10;91.20;;;;;;5056667;28;20047;-66
2021/06/10 11:57:59;;;;;;;10.30;3.47;;;28.30;91.80;;;;;;5056969;28;20037;-65
2021/06/10 12:00:30;;;;;;;5.55;3.00;;;28.60;91.60;;;;;;5060601;28;20047;-65
2021/06/10 12:02:57;;;;;;;4.75;2.45;;;28.60;90.50;;;;;;5057173;28;20505;-65
2021/06/10 12:05:23;;;;;;;5.03;2.78;;;28.00;90.90;;;;;;5058537;28;20090;-64
2021/06/10 12:07:49;;;;;;;5.63;2.60;;;27.70;92.00;;;;;;5072124;28;20024;-65
2021/06/10 12:10:18;;;;;;;11.20;2.67;;;28.00;92.00;;;;;;5061830;28;20491;-64
2021/06/10 12:12:47;;;;;;;2.58;2.00;;;28.30;93.20;;;;;;5063279;28;20060;-66
2021/06/10 12:15:26;;;;;;;5.97;2.42;;;28.90;91.90;;;;;;5053871;28;20036;-66
2021/06/10 12:18:11;;;;;;;10.57;2.97;;;29.10;90.40;;;;;;5057187;28;20057;-66
2021/06/10 12:20:42;;;;;;;5.93;2.25;;;29.20;90.10;;;;;;5062420;28;20619;-66
2021/06/10 12:23:20;;;;;;;3.65;1.95;;;29.50;87.60;;;;;;5058966;28;20046;-65
2021/06/10 12:25:55;;;;;;;4.55;2.00;;;29.70;84.20;;;;;;5056871;28;20025;-63
2021/06/10 12:28:34;;;;;;;3.97;1.88;;;29.30;82.90;;;;;;5059694;28;20021;-65
2021/06/10 12:31:05;;;;;;;7.22;2.47;;;29.20;84.70;;;;;;5062284;28;20025;-64
2021/06/10 12:33:32;;;;;;;5.90;2.17;;;29.00;87.70;;;;;;5065297;28;20017;-63
2021/06/10 12:35:59;;;;;;;3.53;2.17;;;28.90;88.50;;;;;;5065501;28;20036;-63
2021/06/10 12:38:34;;;;;;;13.35;2.38;;;29.10;88.80;;;;;;5066244;28;20024;-64
2021/06/10 12:41:28;;;;;;;3.40;1.98;;;28.70;87.70;;;;;;5059084;28;20029;-64